Spicewood's Hourly Summary for Sunday, July 8, 2018
Hour Temp
(f)
RH
(%)
Solar Rad.
(MJ/m2)
Rainfall
(in)
Wind
(mph)
7/8/2018 12:00 AM 73 100 0 0 0.58
7/8/2018 1:00 AM 72 100 0 0 0.91
7/8/2018 2:00 AM 72 100 0 0 1.17
7/8/2018 3:00 AM 71 100 0 0 0.4
7/8/2018 4:00 AM 71 100 0 0 0.59
7/8/2018 5:00 AM 70 100 0 0 0.78
7/8/2018 6:00 AM 70 100 0 0 0.56
7/8/2018 7:00 AM 70 100 0.02 0.01 0.75
7/8/2018 8:00 AM 72 100 0.36 0 0.74
7/8/2018 9:00 AM 76 99 0.67 0 1.05
7/8/2018 10:00 AM 79 83 1.34 0 1.38
7/8/2018 11:00 AM 83 74 1.73 0 2.01
7/8/2018 12:00 PM 86 65 1.73 0 2.63
7/8/2018 1:00 PM 86 56 3.13 0 2.94
7/8/2018 2:00 PM 89 56 3.52 0 3.63
7/8/2018 3:00 PM 89 49 2.74 0 3.4
7/8/2018 4:00 PM 89 50 1.23 0 3.56
7/8/2018 5:00 PM 89 50 2.35 0 5.14
7/8/2018 6:00 PM 89 52 1.54 0 4.19
7/8/2018 7:00 PM 87 52 0.8 0 2.69
7/8/2018 8:00 PM 87 66 0.35 0 5.11
7/8/2018 9:00 PM 81 83 0.03 0 3.25
7/8/2018 10:00 PM 78 87 0 0 1.58
7/8/2018 11:00 PM 77 89 0 0 1.49
Data Summary 79 79 21.54 0.01 2.11